Time;durP1;ratioP1;P1;durP2;ratioP2;P2;SDS_P1;SDS_P2;PMS_P1;PMS_P2;Temp;Humidity;BMP_temperature;BMP_pressure;BME280_temperature;BME280_humidity;BME280_pressure;Samples;Min_cycle;Max_cycle;Signal;HPM_P1;HPM_P2
2022/06/18 00:01:42;;;;;;;9.50;6.70;;;;;;;13.01;69.35;100039.77;430328;1273;147732;-62
2022/06/18 00:23:01;;;;;;;8.50;6.50;;;;;;;12.65;69.71;100024.95;446300;1273;143917;-62
2022/06/18 00:33:23;;;;;;;8.30;6.00;;;;;;;12.50;70.00;100016.27;433501;1273;142404;-61
2022/06/18 00:43:49;;;;;;;7.80;6.30;;;;;;;12.37;70.59;100019.05;447209;1273;142937;-62
2022/06/18 00:54:19;;;;;;;9.20;5.90;;;;;;;12.25;70.74;100023.63;447310;1273;147503;-62
2022/06/18 01:04:45;;;;;;;10.70;6.80;;;;;;;12.16;71.16;100020.17;440059;1273;143300;-59
2022/06/18 01:15:11;;;;;;;6.80;5.60;;;;;;;12.04;71.45;100013.74;447235;1273;142591;-61
2022/06/18 01:25:33;;;;;;;8.30;5.60;;;;;;;11.94;71.46;100008.92;447133;1273;142990;-61
2022/06/18 01:35:55;;;;;;;7.00;5.40;;;;;;;11.85;71.49;100003.70;436025;1273;146278;-61
2022/06/18 01:46:17;;;;;;;7.00;6.20;;;;;;;11.72;71.70;99999.70;433493;1273;196930;-60
2022/06/18 01:56:42;;;;;;;8.60;6.40;;;;;;;11.58;72.13;99982.31;435219;1273;142887;-61
2022/06/18 02:07:06;;;;;;;9.30;5.30;;;;;;;11.49;72.27;99980.97;447244;1272;142789;-61
2022/06/18 02:17:29;;;;;;;7.20;6.40;;;;;;;11.45;72.42;99976.47;446332;1273;144299;-62
2022/06/18 02:27:56;;;;;;;6.80;5.70;;;;;;;11.51;72.63;99972.60;447199;1272;144045;-62
2022/06/18 02:38:20;;;;;;;7.60;5.70;;;;;;;11.65;72.24;99961.61;435670;1273;142889;-62
2022/06/18 02:48:43;;;;;;;8.70;7.00;;;;;;;11.90;72.13;99967.94;432205;1272;142517;-59
2022/06/18 02:59:06;;;;;;;10.20;6.20;;;;;;;12.72;71.89;99969.29;429048;1273;145754;-61
2022/06/18 03:09:28;;;;;;;9.20;5.50;;;;;;;13.39;70.42;99976.94;432534;1273;145204;-60
2022/06/18 03:19:56;;;;;;;8.00;5.00;;;;;;;13.52;69.38;99981.36;430763;1273;142731;-61
2022/06/18 03:30:18;;;;;;;9.80;5.20;;;;;;;13.97;69.32;99986.06;432247;1273;212043;-61
2022/06/18 03:40:40;;;;;;;9.10;5.50;;;;;;;14.99;67.20;99981.29;430283;1273;140940;-61
2022/06/18 03:51:02;;;;;;;7.60;5.10;;;;;;;15.06;66.67;99981.45;430385;1273;141994;-61
2022/06/18 04:01:28;;;;;;;8.90;5.20;;;;;;;16.26;65.82;99968.83;431786;1273;145572;-61
2022/06/18 04:11:49;;;;;;;6.00;4.90;;;;;;;20.78;61.78;99951.38;431189;1273;142367;-62
2022/06/18 04:22:10;;;;;;;5.70;4.60;;;;;;;26.46;53.65;99947.08;429627;1273;198753;-62
2022/06/18 04:32:35;;;;;;;6.70;4.50;;;;;;;32.17;45.17;99941.65;429961;1273;142014;-63
2022/06/18 04:42:57;;;;;;;4.60;4.20;;;;;;;36.55;37.68;99941.48;430577;1273;141959;-62
2022/06/18 04:53:19;;;;;;;5.60;4.20;;;;;;;40.10;32.29;99932.50;431348;1273;143165;-64
2022/06/18 05:03:40;;;;;;;3.20;2.90;;;;;;;43.10;27.40;99921.05;431163;1271;142433;-63
2022/06/18 05:14:02;;;;;;;2.80;2.60;;;;;;;44.90;24.03;99922.30;429383;1272;143221;-62
2022/06/18 05:24:24;;;;;;;5.40;3.10;;;;;;;46.48;21.56;99917.65;429985;1272;143699;-61
2022/06/18 05:34:46;;;;;;;2.70;2.50;;;;;;;46.91;19.80;99911.05;429776;1273;142122;-62
2022/06/18 05:45:09;;;;;;;3.40;2.60;;;;;;;45.67;19.66;99910.73;430085;1272;141523;-62
2022/06/18 05:55:31;;;;;;;3.80;2.60;;;;;;;47.51;18.25;99912.03;429781;1273;141900;-62
2022/06/18 06:05:53;;;;;;;3.20;2.90;;;;;;;50.95;16.83;99920.13;430532;1272;146644;-61
2022/06/18 06:16:15;;;;;;;1.70;1.60;;;;;;;52.53;14.82;99909.02;429874;1273;142613;-62
2022/06/18 06:26:36;;;;;;;1.90;1.80;;;;;;;51.26;14.53;99891.90;429334;1273;142811;-62
2022/06/18 06:36:58;;;;;;;2.30;2.20;;;;;;;51.47;14.12;99886.45;431859;1273;142202;-62
2022/06/18 06:47:20;;;;;;;3.70;3.40;;;;;;;54.21;13.05;99880.64;429573;1273;141729;-62
2022/06/18 06:57:44;;;;;;;4.70;3.20;;;;;;;54.75;12.05;99870.18;430445;1273;145513;-64
2022/06/18 07:08:11;;;;;;;2.50;2.40;;;;;;;50.79;13.25;99857.16;432411;1272;142499;-61
2022/06/18 07:18:35;;;;;;;2.40;2.20;;;;;;;50.53;13.47;99851.29;432692;1272;141560;-63
2022/06/18 07:28:56;;;;;;;1.30;1.10;;;;;;;49.35;13.40;99844.86;429557;1272;144803;-62
2022/06/18 07:39:18;;;;;;;1.40;0.90;;;;;;;42.82;15.45;99838.17;430412;1273;141917;-62
2022/06/18 07:49:40;;;;;;;5.50;1.30;;;;;;;37.80;18.45;99843.61;430689;1273;140691;-62
2022/06/18 08:00:04;;;;;;;2.60;1.40;;;;;;;34.01;21.37;99847.98;431185;1273;142378;-62
2022/06/18 08:10:32;;;;;;;6.40;2.00;;;;;;;32.06;23.84;99842.64;429930;1273;141393;-62
2022/06/18 08:20:54;;;;;;;1.50;1.10;;;;;;;30.08;26.12;99846.10;429918;1272;141023;-61
2022/06/18 08:31:16;;;;;;;6.80;2.90;;;;;;;29.26;28.20;99849.90;430181;1272;478632;-63
2022/06/18 08:41:59;;;;;;;2.00;1.50;;;;;;;30.84;27.96;99849.45;429659;1271;141968;-63
2022/06/18 08:52:36;;;;;;;2.20;0.90;;;;;;;31.04;27.99;99839.31;433979;1273;142140;-61
2022/06/18 09:03:02;;;;;;;3.10;1.00;;;;;;;31.90;27.01;99826.61;429982;1273;141522;-62
2022/06/18 09:13:43;;;;;;;1.10;1.10;;;;;;;32.41;26.52;99830.05;431725;1273;141222;-62
2022/06/18 09:24:07;;;;;;;2.30;0.80;;;;;;;32.48;26.13;99821.13;432478;1272;145737;-62
2022/06/18 09:34:34;;;;;;;6.40;1.60;;;;;;;31.49;26.92;99803.42;431199;1272;141110;-62
2022/06/18 09:45:01;;;;;;;2.70;1.00;;;;;;;31.32;27.44;99792.41;430869;1273;142924;-62
2022/06/18 09:55:33;;;;;;;3.80;1.70;;;;;;;30.80;27.41;99775.70;431655;1273;141786;-60
2022/06/18 10:16:49;;;;;;;4.90;1.10;;;;;;;30.28;27.94;99762.09;431355;1273;141584;-60
2022/06/18 10:27:22;;;;;;;5.60;1.20;;;;;;;29.83;28.55;99749.95;431881;1272;141018;-61
2022/06/18 10:37:52;;;;;;;1.60;1.00;;;;;;;29.59;29.02;99721.23;433135;1273;141731;-61
2022/06/18 10:48:27;;;;;;;2.20;0.90;;;;;;;29.04;29.26;99707.92;430293;1272;145517;-61
2022/06/18 10:58:52;;;;;;;2.40;1.00;;;;;;;28.64;28.96;99698.00;430637;1273;142502;-61
2022/06/18 11:09:21;;;;;;;3.70;1.20;;;;;;;28.55;29.33;99688.58;431342;1273;142740;-62
2022/06/18 11:19:48;;;;;;;1.50;1.20;;;;;;;28.35;29.84;99682.34;429865;1273;141557;-61
2022/06/18 11:30:23;;;;;;;6.50;1.90;;;;;;;27.87;29.51;99678.23;430828;1273;143105;-62
2022/06/18 11:40:53;;;;;;;2.10;1.40;;;;;;;27.42;30.02;99673.70;431323;1273;145865;-61
2022/06/18 11:51:20;;;;;;;1.80;1.70;;;;;;;27.59;30.90;99667.96;435675;1272;146257;-61
2022/06/18 12:01:47;;;;;;;2.00;1.80;;;;;;;27.47;30.85;99648.65;431566;1273;141553;-61
2022/06/18 12:12:24;;;;;;;;;;;;;;;27.38;31.41;99622.57;432217;1273;141043;-60
2022/06/18 12:22:54;;;;;;;2.80;2.60;;;;;;;27.33;31.59;99614.08;432476;1273;128722;-62
2022/06/18 12:33:24;;;;;;;4.90;1.70;;;;;;;27.30;31.69;99601.47;430623;1273;142657;-62
2022/06/18 12:44:01;;;;;;;2.00;1.50;;;;;;;27.25;31.81;99585.13;430406;1271;141440;-62
2022/06/18 12:54:39;;;;;;;2.00;1.10;;;;;;;27.23;32.07;99575.71;430470;1273;147060;-62
2022/06/18 13:05:14;;;;;;;3.40;1.70;;;;;;;27.25;31.95;99558.84;431737;1273;145905;-62
2022/06/18 13:15:42;;;;;;;1.80;1.20;;;;;;;27.48;31.98;99535.67;431163;1273;140542;-61
2022/06/18 13:36:59;;;;;;;1.50;1.40;;;;;;;27.58;31.51;99511.06;430263;1273;141228;-62
2022/06/18 13:47:30;;;;;;;5.70;2.00;;;;;;;27.55;31.92;99497.34;430404;1273;145521;-61
2022/06/18 13:57:52;;;;;;;4.20;1.20;;;;;;;27.49;32.23;99487.84;430817;1273;151453;-62
2022/06/18 14:08:24;;;;;;;1.30;1.20;;;;;;;27.47;32.69;99487.30;429510;1273;145086;-63
2022/06/18 14:18:45;;;;;;;1.50;1.30;;;;;;;27.50;32.54;99487.70;430773;1273;145316;-62
2022/06/18 14:29:07;;;;;;;1.60;1.40;;;;;;;27.48;32.74;99485.57;430624;1273;141626;-62
2022/06/18 14:39:33;;;;;;;2.30;1.20;;;;;;;27.37;32.61;99472.65;430999;1273;141783;-62
2022/06/18 14:50:22;;;;;;;3.10;1.50;;;;;;;27.32;32.81;99466.13;431214;1273;147541;-62
2022/06/18 15:01:01;;;;;;;2.70;1.10;;;;;;;27.34;33.46;99454.91;431793;1273;145208;-62
2022/06/18 15:11:25;;;;;;;1.60;1.50;;;;;;;27.30;33.58;99453.10;429248;1273;142697;-62
2022/06/18 15:21:55;;;;;;;3.80;0.90;;;;;;;27.33;33.62;99443.17;430190;1273;142159;-63
2022/06/18 15:32:20;;;;;;;0.90;0.80;;;;;;;27.30;33.60;99428.67;430223;1273;144847;-61
2022/06/18 15:42:44;;;;;;;1.10;0.60;;;;;;;27.34;34.13;99421.44;431083;1273;141356;-62
2022/06/18 15:53:06;;;;;;;1.80;0.80;;;;;;;27.30;33.97;99415.54;432685;1273;142450;-62
2022/06/18 16:03:30;;;;;;;3.20;1.50;;;;;;;27.24;34.33;99395.04;434883;1273;141701;-62
2022/06/18 16:13:53;;;;;;;1.00;0.90;;;;;;;27.19;34.55;99392.02;433685;1273;142857;-62
2022/06/18 16:24:21;;;;;;;5.70;1.20;;;;;;;27.21;34.91;99393.34;431347;1271;140702;-62
2022/06/18 16:35:01;;;;;;;1.90;0.60;;;;;;;27.20;34.72;99385.67;430988;1273;142020;-60
2022/06/18 16:45:36;;;;;;;1.10;0.60;;;;;;;27.09;34.35;99379.56;432384;1273;143270;-59
2022/06/18 16:55:58;;;;;;;2.20;0.90;;;;;;;27.04;34.06;99373.95;429788;1273;146978;-61
2022/06/18 17:06:20;;;;;;;1.30;0.90;;;;;;;26.91;34.32;99366.90;430237;1273;147954;-62
2022/06/18 17:16:42;;;;;;;1.20;1.10;;;;;;;26.75;34.79;99358.87;430454;1274;144974;-61
2022/06/18 17:37:45;;;;;;;0.90;0.80;;;;;;;26.30;35.48;99330.95;431105;1273;141493;-61
2022/06/18 17:48:12;;;;;;;2.60;1.30;;;;;;;26.08;35.90;99331.54;430460;1273;142923;-61
2022/06/18 17:58:34;;;;;;;3.00;1.20;;;;;;;26.04;35.94;99319.66;431910;1274;145177;-61
2022/06/18 18:09:02;;;;;;;2.50;1.70;;;;;;;26.17;36.01;99326.13;431100;1274;143050;-61
2022/06/18 18:19:29;;;;;;;2.30;1.50;;;;;;;25.63;36.68;99314.98;430449;1273;141772;-61
2022/06/18 18:29:52;;;;;;;3.40;1.80;;;;;;;25.08;37.33;99310.20;430351;1273;146315;-61
2022/06/18 18:40:14;;;;;;;2.10;1.30;;;;;;;24.60;38.10;99309.57;430064;1273;145768;-61
2022/06/18 18:50:36;;;;;;;7.40;1.50;;;;;;;24.14;38.97;99320.23;429457;1273;147861;-60
2022/06/18 19:00:59;;;;;;;2.00;1.50;;;;;;;23.67;40.10;99323.98;430320;1274;141508;-63
2022/06/18 19:11:21;;;;;;;4.80;2.10;;;;;;;23.22;41.35;99340.25;431262;1273;142311;-62
2022/06/18 19:21:43;;;;;;;7.20;2.00;;;;;;;22.81;42.58;99346.45;431178;1273;142068;-62
2022/06/18 19:32:07;;;;;;;4.10;3.00;;;;;;;22.41;43.94;99355.20;430710;1273;142361;-60
2022/06/18 19:42:33;;;;;;;7.70;2.30;;;;;;;22.02;45.14;99359.52;430682;1273;142151;-61
2022/06/18 19:52:55;;;;;;;4.10;2.60;;;;;;;21.67;46.43;99357.84;429614;1273;142270;-60
2022/06/18 20:03:17;;;;;;;4.50;2.80;;;;;;;21.40;47.20;99349.63;431069;1273;141649;-64
2022/06/18 20:13:43;;;;;;;3.80;3.20;;;;;;;21.23;47.78;99350.52;430771;1273;142756;-60
2022/06/18 20:24:06;;;;;;;3.60;2.70;;;;;;;21.07;48.48;99336.38;432760;1273;142220;-62
2022/06/18 20:34:29;;;;;;;2.70;2.50;;;;;;;20.96;49.10;99333.24;430203;1273;340516;-59
2022/06/18 20:44:51;;;;;;;3.90;2.90;;;;;;;20.80;49.79;99337.58;447099;1273;141847;-62
2022/06/18 21:05:54;;;;;;;3.30;2.70;;;;;;;20.61;51.31;99329.95;436412;1273;141672;-61
2022/06/18 21:16:16;;;;;;;2.30;2.00;;;;;;;20.59;51.70;99331.35;444400;1272;141866;-62
2022/06/18 21:26:38;;;;;;;2.40;2.10;;;;;;;20.61;52.14;99327.61;446407;1273;142844;-61
2022/06/18 21:37:00;;;;;;;4.40;2.60;;;;;;;20.61;52.26;99325.94;447190;1272;142176;-62
2022/06/18 21:47:22;;;;;;;2.90;2.60;;;;;;;20.59;52.90;99322.41;446446;1273;144845;-62
2022/06/18 21:57:46;;;;;;;2.90;2.40;;;;;;;20.58;53.04;99326.09;441761;1273;142778;-62
2022/06/18 22:08:08;;;;;;;2.60;2.40;;;;;;;20.47;53.48;99326.96;431641;1273;141713;-61
2022/06/18 22:18:31;;;;;;;5.70;3.20;;;;;;;20.27;53.97;99326.13;443226;1272;142263;-62
2022/06/18 22:28:52;;;;;;;6.20;2.90;;;;;;;20.08;54.53;99319.84;441364;1272;160503;-62
2022/06/18 22:39:14;;;;;;;4.70;2.80;;;;;;;19.94;55.10;99315.83;442830;1273;143928;-62
2022/06/18 22:49:39;;;;;;;3.30;2.50;;;;;;;19.83;55.50;99317.44;438558;1273;144280;-61
2022/06/18 23:00:01;;;;;;;4.00;3.20;;;;;;;19.73;56.19;99309.27;439549;1271;144683;-59
2022/06/18 23:10:22;;;;;;;2.70;2.50;;;;;;;19.64;56.53;99304.77;444645;1272;142006;-62
2022/06/18 23:20:44;;;;;;;3.10;2.30;;;;;;;19.52;56.92;99300.73;444011;1273;141799;-61
2022/06/18 23:31:07;;;;;;;5.70;2.80;;;;;;;19.39;57.30;99301.13;436628;1273;142179;-61
2022/06/18 23:41:30;;;;;;;2.90;2.70;;;;;;;19.29;57.65;99300.57;440809;1272;142730;-62
2022/06/18 23:51:55;;;;;;;3.70;3.30;;;;;;;19.19;58.03;99291.00;434504;1272;144103;-61
